sensor_id;sensor_type;location;lat;lon;timestamp;temperature;humidity
336;DHT22;156;48.738;9.228;2022-12-16T00:01:08;-2.20;97.60
336;DHT22;156;48.738;9.228;2022-12-16T00:03:36;-2.20;96.10
336;DHT22;156;48.738;9.228;2022-12-16T00:06:03;-2.20;97.70
336;DHT22;156;48.738;9.228;2022-12-16T00:08:34;-2.20;97.80
336;DHT22;156;48.738;9.228;2022-12-16T00:11:01;-2.20;98.50
336;DHT22;156;48.738;9.228;2022-12-16T00:13:30;-2.20;99.90
336;DHT22;156;48.738;9.228;2022-12-16T00:15:57;-2.30;99.90
336;DHT22;156;48.738;9.228;2022-12-16T00:18:24;-2.40;99.90
336;DHT22;156;48.738;9.228;2022-12-16T00:20:53;-2.40;99.90
336;DHT22;156;48.738;9.228;2022-12-16T00:23:20;-2.40;99.90
336;DHT22;156;48.738;9.228;2022-12-16T00:25:49;-2.40;99.90
336;DHT22;156;48.738;9.228;2022-12-16T00:28:17;-2.40;99.90
336;DHT22;156;48.738;9.228;2022-12-16T00:30:48;-2.40;99.90
336;DHT22;156;48.738;9.228;2022-12-16T00:33:16;-2.40;99.90
336;DHT22;156;48.738;9.228;2022-12-16T00:35:44;-2.40;99.90
336;DHT22;156;48.738;9.228;2022-12-16T00:38:11;-2.40;99.90
336;DHT22;156;48.738;9.228;2022-12-16T00:40:37;-2.40;99.90
336;DHT22;156;48.738;9.228;2022-12-16T00:43:06;-2.50;99.90
336;DHT22;156;48.738;9.228;2022-12-16T00:45:33;-2.60;99.90
336;DHT22;156;48.738;9.228;2022-12-16T00:48:00;-2.50;99.90
336;DHT22;156;48.738;9.228;2022-12-16T00:50:27;-2.50;99.90
336;DHT22;156;48.738;9.228;2022-12-16T00:52:54;-2.50;99.90
336;DHT22;156;48.738;9.228;2022-12-16T00:55:21;-2.50;99.90
336;DHT22;156;48.738;9.228;2022-12-16T00:57:48;-2.50;99.90
336;DHT22;156;48.738;9.228;2022-12-16T01:00:17;-2.50;99.90
336;DHT22;156;48.738;9.228;2022-12-16T01:02:46;-2.50;99.90
336;DHT22;156;48.738;9.228;2022-12-16T01:05:14;-2.50;99.90
336;DHT22;156;48.738;9.228;2022-12-16T01:07:41;-2.40;99.90
336;DHT22;156;48.738;9.228;2022-12-16T01:10:10;-2.40;99.90
336;DHT22;156;48.738;9.228;2022-12-16T01:12:37;-2.40;99.90
336;DHT22;156;48.738;9.228;2022-12-16T01:15:06;-2.40;99.90
336;DHT22;156;48.738;9.228;2022-12-16T01:17:34;-2.40;99.90
336;DHT22;156;48.738;9.228;2022-12-16T01:20:03;-2.50;99.90
336;DHT22;156;48.738;9.228;2022-12-16T01:22:31;-2.50;99.90
336;DHT22;156;48.738;9.228;2022-12-16T01:24:58;-2.50;99.90
336;DHT22;156;48.738;9.228;2022-12-16T01:27:26;-2.50;99.90
336;DHT22;156;48.738;9.228;2022-12-16T01:29:53;-2.60;99.90
336;DHT22;156;48.738;9.228;2022-12-16T01:32:20;-2.60;99.90
336;DHT22;156;48.738;9.228;2022-12-16T01:34:50;-2.50;99.90
336;DHT22;156;48.738;9.228;2022-12-16T01:37:17;-2.50;99.90
336;DHT22;156;48.738;9.228;2022-12-16T01:39:45;-2.50;99.90
336;DHT22;156;48.738;9.228;2022-12-16T01:42:13;-2.50;99.90
336;DHT22;156;48.738;9.228;2022-12-16T01:44:41;-2.60;99.90
336;DHT22;156;48.738;9.228;2022-12-16T01:47:12;-2.60;99.90
336;DHT22;156;48.738;9.228;2022-12-16T01:49:42;-2.60;99.90
336;DHT22;156;48.738;9.228;2022-12-16T01:52:14;-2.60;99.90
336;DHT22;156;48.738;9.228;2022-12-16T01:54:45;-2.60;99.90
336;DHT22;156;48.738;9.228;2022-12-16T01:57:14;-2.60;99.90
336;DHT22;156;48.738;9.228;2022-12-16T01:59:46;-2.50;99.90
336;DHT22;156;48.738;9.228;2022-12-16T02:02:16;-2.50;99.90
336;DHT22;156;48.738;9.228;2022-12-16T02:04:43;-2.50;99.90
336;DHT22;156;48.738;9.228;2022-12-16T02:07:32;-2.60;99.90
336;DHT22;156;48.738;9.228;2022-12-16T02:09:59;-2.60;99.90
336;DHT22;156;48.738;9.228;2022-12-16T02:12:30;-2.70;99.90
336;DHT22;156;48.738;9.228;2022-12-16T02:15:17;-2.60;99.90
336;DHT22;156;48.738;9.228;2022-12-16T02:17:54;-2.60;99.90
336;DHT22;156;48.738;9.228;2022-12-16T02:23:48;-2.50;99.90
336;DHT22;156;48.738;9.228;2022-12-16T02:26:38;-2.60;99.90
336;DHT22;156;48.738;9.228;2022-12-16T02:29:53;-2.70;99.90
336;DHT22;156;48.738;9.228;2022-12-16T02:32:28;-2.70;99.90
336;DHT22;156;48.738;9.228;2022-12-16T02:35:01;-2.70;99.90
336;DHT22;156;48.738;9.228;2022-12-16T02:37:38;-2.80;99.90
336;DHT22;156;48.738;9.228;2022-12-16T02:40:11;-2.80;99.90
336;DHT22;156;48.738;9.228;2022-12-16T02:42:46;-2.80;99.90
336;DHT22;156;48.738;9.228;2022-12-16T02:45:15;-2.80;99.90
336;DHT22;156;48.738;9.228;2022-12-16T02:47:45;-2.70;99.90
336;DHT22;156;48.738;9.228;2022-12-16T02:50:17;-2.70;99.90
336;DHT22;156;48.738;9.228;2022-12-16T02:52:44;-2.70;99.90
336;DHT22;156;48.738;9.228;2022-12-16T02:55:12;-2.80;99.90
336;DHT22;156;48.738;9.228;2022-12-16T02:57:59;-2.90;99.90
336;DHT22;156;48.738;9.228;2022-12-16T03:00:36;-2.90;99.90
336;DHT22;156;48.738;9.228;2022-12-16T03:03:10;-2.90;99.90
336;DHT22;156;48.738;9.228;2022-12-16T03:05:40;-2.90;99.90
336;DHT22;156;48.738;9.228;2022-12-16T03:08:11;-2.90;99.90
336;DHT22;156;48.738;9.228;2022-12-16T03:10:42;-2.80;99.90
336;DHT22;156;48.738;9.228;2022-12-16T03:13:12;-2.80;99.90
336;DHT22;156;48.738;9.228;2022-12-16T03:15:40;-2.80;99.90
336;DHT22;156;48.738;9.228;2022-12-16T03:18:11;-2.80;99.90
336;DHT22;156;48.738;9.228;2022-12-16T03:20:44;-2.80;99.90
336;DHT22;156;48.738;9.228;2022-12-16T03:23:16;-2.90;99.90
336;DHT22;156;48.738;9.228;2022-12-16T03:25:46;-2.90;99.90
336;DHT22;156;48.738;9.228;2022-12-16T03:28:27;-2.80;99.90
336;DHT22;156;48.738;9.228;2022-12-16T03:31:02;-2.80;99.90
336;DHT22;156;48.738;9.228;2022-12-16T03:33:36;-2.80;99.90
336;DHT22;156;48.738;9.228;2022-12-16T03:36:09;-2.80;99.90
336;DHT22;156;48.738;9.228;2022-12-16T03:38:39;-2.80;99.90
336;DHT22;156;48.738;9.228;2022-12-16T03:41:07;-2.80;99.90
336;DHT22;156;48.738;9.228;2022-12-16T03:43:36;-2.90;99.90
336;DHT22;156;48.738;9.228;2022-12-16T03:46:05;-2.90;99.90
336;DHT22;156;48.738;9.228;2022-12-16T03:48:34;-2.90;99.90
336;DHT22;156;48.738;9.228;2022-12-16T03:51:02;-2.90;99.90
336;DHT22;156;48.738;9.228;2022-12-16T03:53:28;-2.90;99.90
336;DHT22;156;48.738;9.228;2022-12-16T03:55:55;-2.90;99.90
336;DHT22;156;48.738;9.228;2022-12-16T03:58:22;-3.00;99.90
336;DHT22;156;48.738;9.228;2022-12-16T04:00:49;-2.90;99.90
336;DHT22;156;48.738;9.228;2022-12-16T04:03:16;-2.90;99.90
336;DHT22;156;48.738;9.228;2022-12-16T04:05:44;-2.80;99.90
336;DHT22;156;48.738;9.228;2022-12-16T04:08:11;-2.90;99.90
336;DHT22;156;48.738;9.228;2022-12-16T04:10:38;-2.90;99.90
336;DHT22;156;48.738;9.228;2022-12-16T04:13:28;-2.90;99.90
336;DHT22;156;48.738;9.228;2022-12-16T04:16:13;-3.00;99.90
336;DHT22;156;48.738;9.228;2022-12-16T04:18:59;-3.00;99.90
336;DHT22;156;48.738;9.228;2022-12-16T04:21:45;-3.00;99.90
336;DHT22;156;48.738;9.228;2022-12-16T04:24:30;-3.10;99.90
336;DHT22;156;48.738;9.228;2022-12-16T04:26:57;-3.00;99.90
336;DHT22;156;48.738;9.228;2022-12-16T04:29:42;-2.90;99.90
336;DHT22;156;48.738;9.228;2022-12-16T04:32:27;-2.90;99.90
336;DHT22;156;48.738;9.228;2022-12-16T04:35:15;-3.00;99.90
336;DHT22;156;48.738;9.228;2022-12-16T04:38:01;-3.00;99.90
336;DHT22;156;48.738;9.228;2022-12-16T04:40:45;-3.00;99.90
336;DHT22;156;48.738;9.228;2022-12-16T04:43:30;-2.90;99.90
336;DHT22;156;48.738;9.228;2022-12-16T04:46:14;-2.90;99.90
336;DHT22;156;48.738;9.228;2022-12-16T04:48:58;-2.90;99.90
336;DHT22;156;48.738;9.228;2022-12-16T04:51:43;-3.00;99.90
336;DHT22;156;48.738;9.228;2022-12-16T04:54:28;-2.90;99.90
336;DHT22;156;48.738;9.228;2022-12-16T04:57:13;-2.90;99.90
336;DHT22;156;48.738;9.228;2022-12-16T04:59:57;-2.90;99.90
336;DHT22;156;48.738;9.228;2022-12-16T05:02:41;-3.00;99.90
336;DHT22;156;48.738;9.228;2022-12-16T05:05:25;-3.00;99.90
336;DHT22;156;48.738;9.228;2022-12-16T05:08:09;-3.00;99.90
336;DHT22;156;48.738;9.228;2022-12-16T05:11:00;-3.00;99.90
336;DHT22;156;48.738;9.228;2022-12-16T05:13:44;-3.00;99.90
336;DHT22;156;48.738;9.228;2022-12-16T05:16:28;-3.00;99.90
336;DHT22;156;48.738;9.228;2022-12-16T05:19:12;-3.00;99.90
336;DHT22;156;48.738;9.228;2022-12-16T05:21:56;-3.00;99.90
336;DHT22;156;48.738;9.228;2022-12-16T05:24:40;-3.00;99.90
336;DHT22;156;48.738;9.228;2022-12-16T05:27:25;-3.00;99.90
336;DHT22;156;48.738;9.228;2022-12-16T05:30:10;-3.00;99.90
336;DHT22;156;48.738;9.228;2022-12-16T05:32:55;-3.00;99.90
336;DHT22;156;48.738;9.228;2022-12-16T05:35:39;-3.10;99.90
336;DHT22;156;48.738;9.228;2022-12-16T05:38:25;-3.10;99.90
336;DHT22;156;48.738;9.228;2022-12-16T05:41:10;-3.00;99.90
336;DHT22;156;48.738;9.228;2022-12-16T05:43:55;-3.00;99.90
336;DHT22;156;48.738;9.228;2022-12-16T05:46:40;-3.10;99.90
336;DHT22;156;48.738;9.228;2022-12-16T05:49:24;-3.00;99.90
336;DHT22;156;48.738;9.228;2022-12-16T05:52:08;-3.00;99.90
336;DHT22;156;48.738;9.228;2022-12-16T05:55:00;-2.90;99.90
336;DHT22;156;48.738;9.228;2022-12-16T05:57:48;-3.00;99.90
336;DHT22;156;48.738;9.228;2022-12-16T06:00:33;-2.80;99.90
336;DHT22;156;48.738;9.228;2022-12-16T06:03:18;-2.80;99.90
336;DHT22;156;48.738;9.228;2022-12-16T06:06:02;-2.80;99.90
336;DHT22;156;48.738;9.228;2022-12-16T06:08:47;-2.90;99.90
336;DHT22;156;48.738;9.228;2022-12-16T06:11:31;-3.00;99.90
336;DHT22;156;48.738;9.228;2022-12-16T06:14:16;-2.90;99.90
336;DHT22;156;48.738;9.228;2022-12-16T06:17:02;-2.90;99.90
336;DHT22;156;48.738;9.228;2022-12-16T06:19:46;-2.80;99.90
336;DHT22;156;48.738;9.228;2022-12-16T06:22:30;-2.80;99.90
336;DHT22;156;48.738;9.228;2022-12-16T06:25:14;-2.90;99.90
336;DHT22;156;48.738;9.228;2022-12-16T06:27:59;-2.80;99.90
336;DHT22;156;48.738;9.228;2022-12-16T06:30:43;-3.00;97.90
336;DHT22;156;48.738;9.228;2022-12-16T06:33:28;-3.00;98.00
336;DHT22;156;48.738;9.228;2022-12-16T06:36:13;-3.10;97.30
336;DHT22;156;48.738;9.228;2022-12-16T06:38:57;-3.10;97.60
336;DHT22;156;48.738;9.228;2022-12-16T06:41:41;-3.10;98.80
336;DHT22;156;48.738;9.228;2022-12-16T06:44:26;-3.00;99.50
336;DHT22;156;48.738;9.228;2022-12-16T06:47:10;-3.00;99.60
336;DHT22;156;48.738;9.228;2022-12-16T06:49:56;-2.90;97.70
336;DHT22;156;48.738;9.228;2022-12-16T06:52:41;-2.90;96.60
336;DHT22;156;48.738;9.228;2022-12-16T06:55:26;-2.90;93.40
336;DHT22;156;48.738;9.228;2022-12-16T06:58:11;-2.90;91.20
336;DHT22;156;48.738;9.228;2022-12-16T07:00:55;-3.00;82.70
336;DHT22;156;48.738;9.228;2022-12-16T07:03:40;-3.00;80.50
336;DHT22;156;48.738;9.228;2022-12-16T07:06:25;-2.90;81.40
336;DHT22;156;48.738;9.228;2022-12-16T07:09:10;-2.80;84.00
336;DHT22;156;48.738;9.228;2022-12-16T07:11:54;-2.90;75.60
336;DHT22;156;48.738;9.228;2022-12-16T07:14:39;-2.80;75.10
336;DHT22;156;48.738;9.228;2022-12-16T07:17:23;-2.90;71.90
336;DHT22;156;48.738;9.228;2022-12-16T07:20:08;-2.80;71.50
336;DHT22;156;48.738;9.228;2022-12-16T07:22:54;-2.80;70.50
336;DHT22;156;48.738;9.228;2022-12-16T07:25:38;-2.80;71.60
336;DHT22;156;48.738;9.228;2022-12-16T07:28:22;-2.80;70.30
336;DHT22;156;48.738;9.228;2022-12-16T07:31:06;-2.80;68.20
336;DHT22;156;48.738;9.228;2022-12-16T07:33:50;-2.80;66.10
336;DHT22;156;48.738;9.228;2022-12-16T07:36:34;-2.80;62.60
336;DHT22;156;48.738;9.228;2022-12-16T07:39:20;-2.70;61.20
336;DHT22;156;48.738;9.228;2022-12-16T07:42:04;-2.70;61.70
336;DHT22;156;48.738;9.228;2022-12-16T07:44:54;-2.60;61.30
336;DHT22;156;48.738;9.228;2022-12-16T07:47:45;-2.60;57.30
336;DHT22;156;48.738;9.228;2022-12-16T07:50:29;-2.70;50.10
336;DHT22;156;48.738;9.228;2022-12-16T07:53:14;-2.60;50.90
336;DHT22;156;48.738;9.228;2022-12-16T07:55:59;-2.60;49.60
336;DHT22;156;48.738;9.228;2022-12-16T07:58:44;-2.60;47.70
336;DHT22;156;48.738;9.228;2022-12-16T08:01:28;-2.60;38.70
336;DHT22;156;48.738;9.228;2022-12-16T08:04:13;-2.60;39.20
336;DHT22;156;48.738;9.228;2022-12-16T08:06:57;-2.50;38.50
336;DHT22;156;48.738;9.228;2022-12-16T08:09:41;-2.50;36.50
336;DHT22;156;48.738;9.228;2022-12-16T08:12:27;-2.40;36.80
336;DHT22;156;48.738;9.228;2022-12-16T08:15:11;-2.40;34.80
336;DHT22;156;48.738;9.228;2022-12-16T08:17:55;-2.40;34.60
336;DHT22;156;48.738;9.228;2022-12-16T08:20:48;-2.40;28.50
336;DHT22;156;48.738;9.228;2022-12-16T08:23:32;-2.30;30.00
336;DHT22;156;48.738;9.228;2022-12-16T08:26:16;-2.30;27.30
336;DHT22;156;48.738;9.228;2022-12-16T08:29:02;-2.30;26.30
336;DHT22;156;48.738;9.228;2022-12-16T08:31:46;-2.20;23.00
336;DHT22;156;48.738;9.228;2022-12-16T08:34:30;-2.20;18.30
336;DHT22;156;48.738;9.228;2022-12-16T08:37:15;-2.30;10.60
336;DHT22;156;48.738;9.228;2022-12-16T08:39:55;-2.30;6.60
336;DHT22;156;48.738;9.228;2022-12-16T08:42:40;-2.20;7.70
336;DHT22;156;48.738;9.228;2022-12-16T08:45:26;-2.20;6.80
336;DHT22;156;48.738;9.228;2022-12-16T08:48:10;-2.20;6.00
336;DHT22;156;48.738;9.228;2022-12-16T08:50:55;-2.20;5.90
336;DHT22;156;48.738;9.228;2022-12-16T08:53:39;-2.20;1.00
336;DHT22;156;48.738;9.228;2022-12-16T08:56:24;-2.20;1.00
336;DHT22;156;48.738;9.228;2022-12-16T08:59:08;-2.20;1.00
336;DHT22;156;48.738;9.228;2022-12-16T09:01:53;-2.10;1.00
336;DHT22;156;48.738;9.228;2022-12-16T09:04:38;-2.00;1.00
336;DHT22;156;48.738;9.228;2022-12-16T09:07:22;-2.00;1.00
336;DHT22;156;48.738;9.228;2022-12-16T09:10:13;-1.90;1.00
336;DHT22;156;48.738;9.228;2022-12-16T09:13:10;-2.00;1.00
336;DHT22;156;48.738;9.228;2022-12-16T09:15:58;-2.10;1.00
336;DHT22;156;48.738;9.228;2022-12-16T09:18:44;-2.10;1.00
336;DHT22;156;48.738;9.228;2022-12-16T09:21:32;-2.00;1.00
336;DHT22;156;48.738;9.228;2022-12-16T09:24:17;-2.00;1.00
336;DHT22;156;48.738;9.228;2022-12-16T09:27:01;-2.00;1.00
336;DHT22;156;48.738;9.228;2022-12-16T09:29:49;-2.00;1.00
336;DHT22;156;48.738;9.228;2022-12-16T09:32:39;-2.00;1.00
336;DHT22;156;48.738;9.228;2022-12-16T09:35:25;-1.90;1.00
336;DHT22;156;48.738;9.228;2022-12-16T09:38:10;-2.00;1.00
336;DHT22;156;48.738;9.228;2022-12-16T09:40:54;-2.00;1.00
336;DHT22;156;48.738;9.228;2022-12-16T09:43:47;-2.00;1.00
336;DHT22;156;48.738;9.228;2022-12-16T09:46:41;-2.00;1.00
336;DHT22;156;48.738;9.228;2022-12-16T09:49:42;-2.10;1.00
336;DHT22;156;48.738;9.228;2022-12-16T09:52:32;-2.00;1.00
336;DHT22;156;48.738;9.228;2022-12-16T09:55:21;-2.00;1.00
336;DHT22;156;48.738;9.228;2022-12-16T09:58:08;-2.00;1.00
336;DHT22;156;48.738;9.228;2022-12-16T10:00:55;-2.00;1.00
336;DHT22;156;48.738;9.228;2022-12-16T10:03:40;-2.00;1.00
336;DHT22;156;48.738;9.228;2022-12-16T10:06:39;-2.00;1.00
336;DHT22;156;48.738;9.228;2022-12-16T10:09:30;-2.00;1.00
336;DHT22;156;48.738;9.228;2022-12-16T10:12:25;-2.00;1.00
336;DHT22;156;48.738;9.228;2022-12-16T10:15:25;-2.00;1.00
336;DHT22;156;48.738;9.228;2022-12-16T10:18:21;-2.00;1.00
336;DHT22;156;48.738;9.228;2022-12-16T10:21:11;-2.00;1.00
336;DHT22;156;48.738;9.228;2022-12-16T10:24:03;-2.00;1.00
336;DHT22;156;48.738;9.228;2022-12-16T10:26:52;-1.90;1.00
336;DHT22;156;48.738;9.228;2022-12-16T10:29:42;-2.00;1.00
336;DHT22;156;48.738;9.228;2022-12-16T10:32:30;-2.00;1.00
336;DHT22;156;48.738;9.228;2022-12-16T10:35:20;-2.00;1.00
336;DHT22;156;48.738;9.228;2022-12-16T10:38:13;-1.90;1.00
336;DHT22;156;48.738;9.228;2022-12-16T10:40:59;-1.70;1.00
336;DHT22;156;48.738;9.228;2022-12-16T10:43:46;-1.60;1.00
336;DHT22;156;48.738;9.228;2022-12-16T10:46:33;-1.50;1.00
336;DHT22;156;48.738;9.228;2022-12-16T10:49:18;-1.60;1.00
336;DHT22;156;48.738;9.228;2022-12-16T10:52:04;-1.50;1.00
336;DHT22;156;48.738;9.228;2022-12-16T10:54:55;-1.70;1.00
336;DHT22;156;48.738;9.228;2022-12-16T10:57:50;-1.70;1.00
336;DHT22;156;48.738;9.228;2022-12-16T11:00:42;-1.80;1.00
336;DHT22;156;48.738;9.228;2022-12-16T11:03:28;-1.90;1.00
336;DHT22;156;48.738;9.228;2022-12-16T11:06:17;-1.80;1.00
336;DHT22;156;48.738;9.228;2022-12-16T11:09:20;-1.80;1.00
336;DHT22;156;48.738;9.228;2022-12-16T11:12:20;-1.90;1.00
336;DHT22;156;48.738;9.228;2022-12-16T11:15:18;-2.00;1.00
336;DHT22;156;48.738;9.228;2022-12-16T11:18:07;-1.90;1.00
336;DHT22;156;48.738;9.228;2022-12-16T11:21:10;-2.00;1.00
336;DHT22;156;48.738;9.228;2022-12-16T11:24:13;-1.90;1.00
336;DHT22;156;48.738;9.228;2022-12-16T11:26:59;-1.90;1.00
336;DHT22;156;48.738;9.228;2022-12-16T11:29:51;-1.90;1.00
336;DHT22;156;48.738;9.228;2022-12-16T11:32:36;-1.80;1.00
336;DHT22;156;48.738;9.228;2022-12-16T11:35:25;-1.80;1.00
336;DHT22;156;48.738;9.228;2022-12-16T11:38:18;-1.80;1.00
336;DHT22;156;48.738;9.228;2022-12-16T11:41:05;-1.70;1.00
336;DHT22;156;48.738;9.228;2022-12-16T11:43:51;-1.70;1.00
336;DHT22;156;48.738;9.228;2022-12-16T11:46:37;-1.60;1.00
336;DHT22;156;48.738;9.228;2022-12-16T11:49:26;-1.60;1.00
336;DHT22;156;48.738;9.228;2022-12-16T11:52:16;-1.60;1.00
336;DHT22;156;48.738;9.228;2022-12-16T11:55:13;-1.60;1.00
336;DHT22;156;48.738;9.228;2022-12-16T11:58:05;-1.50;1.00
336;DHT22;156;48.738;9.228;2022-12-16T12:00:58;-1.50;1.00
336;DHT22;156;48.738;9.228;2022-12-16T12:03:46;-1.40;1.00
336;DHT22;156;48.738;9.228;2022-12-16T12:06:40;-1.30;1.00
336;DHT22;156;48.738;9.228;2022-12-16T12:09:34;-1.30;1.00
336;DHT22;156;48.738;9.228;2022-12-16T12:12:30;-1.30;1.00
336;DHT22;156;48.738;9.228;2022-12-16T12:15:26;-1.40;1.00
336;DHT22;156;48.738;9.228;2022-12-16T12:18:16;-1.40;1.00
336;DHT22;156;48.738;9.228;2022-12-16T12:21:07;-1.40;1.00
336;DHT22;156;48.738;9.228;2022-12-16T12:24:00;-1.40;1.00
336;DHT22;156;48.738;9.228;2022-12-16T12:26:56;-1.30;1.00
336;DHT22;156;48.738;9.228;2022-12-16T12:29:54;-1.30;1.00
336;DHT22;156;48.738;9.228;2022-12-16T12:32:49;-1.30;1.00
336;DHT22;156;48.738;9.228;2022-12-16T12:35:45;-1.20;1.00
336;DHT22;156;48.738;9.228;2022-12-16T12:38:43;-1.30;1.00
336;DHT22;156;48.738;9.228;2022-12-16T12:41:41;-1.20;1.00
336;DHT22;156;48.738;9.228;2022-12-16T12:44:40;-1.20;1.00
336;DHT22;156;48.738;9.228;2022-12-16T12:47:34;-1.20;1.00
336;DHT22;156;48.738;9.228;2022-12-16T12:50:30;-1.20;1.00
336;DHT22;156;48.738;9.228;2022-12-16T12:53:23;-1.20;1.00
336;DHT22;156;48.738;9.228;2022-12-16T12:56:17;-1.30;1.00
336;DHT22;156;48.738;9.228;2022-12-16T12:59:10;-1.40;1.00
336;DHT22;156;48.738;9.228;2022-12-16T13:01:59;-1.30;1.00
336;DHT22;156;48.738;9.228;2022-12-16T13:04:47;-1.40;1.00
336;DHT22;156;48.738;9.228;2022-12-16T13:07:32;-1.40;1.00
336;DHT22;156;48.738;9.228;2022-12-16T13:10:32;-1.60;1.00
336;DHT22;156;48.738;9.228;2022-12-16T13:13:35;-1.60;1.00
336;DHT22;156;48.738;9.228;2022-12-16T13:19:55;-1.70;1.00
336;DHT22;156;48.738;9.228;2022-12-16T13:22:39;-1.70;1.00
336;DHT22;156;48.738;9.228;2022-12-16T13:25:39;-1.70;1.00
336;DHT22;156;48.738;9.228;2022-12-16T13:28:28;-1.70;1.00
336;DHT22;156;48.738;9.228;2022-12-16T13:31:14;-1.70;1.00
336;DHT22;156;48.738;9.228;2022-12-16T13:34:04;-1.70;1.00
336;DHT22;156;48.738;9.228;2022-12-16T13:36:55;-1.70;1.00
336;DHT22;156;48.738;9.228;2022-12-16T13:39:42;-1.60;1.00
336;DHT22;156;48.738;9.228;2022-12-16T13:42:47;-1.70;1.00
336;DHT22;156;48.738;9.228;2022-12-16T13:45:35;-1.70;1.00
336;DHT22;156;48.738;9.228;2022-12-16T13:48:32;-1.70;1.00
336;DHT22;156;48.738;9.228;2022-12-16T13:55:15;-1.80;1.00
336;DHT22;156;48.738;9.228;2022-12-16T13:58:04;-1.80;1.00
336;DHT22;156;48.738;9.228;2022-12-16T14:01:00;-1.80;1.00
336;DHT22;156;48.738;9.228;2022-12-16T14:03:48;-1.70;1.00
336;DHT22;156;48.738;9.228;2022-12-16T14:06:36;-1.60;1.00
336;DHT22;156;48.738;9.228;2022-12-16T14:09:33;-1.50;1.00
336;DHT22;156;48.738;9.228;2022-12-16T14:12:44;-1.60;1.00
336;DHT22;156;48.738;9.228;2022-12-16T14:15:34;-1.60;1.00
336;DHT22;156;48.738;9.228;2022-12-16T14:18:28;-1.70;1.00
336;DHT22;156;48.738;9.228;2022-12-16T14:21:18;-1.80;1.00
336;DHT22;156;48.738;9.228;2022-12-16T14:24:09;-1.80;1.00
336;DHT22;156;48.738;9.228;2022-12-16T14:26:56;-1.80;1.00
336;DHT22;156;48.738;9.228;2022-12-16T14:29:43;-1.90;1.00
336;DHT22;156;48.738;9.228;2022-12-16T14:32:30;-1.90;1.00
336;DHT22;156;48.738;9.228;2022-12-16T14:35:18;-1.90;1.00
336;DHT22;156;48.738;9.228;2022-12-16T14:38:21;-2.00;1.00
336;DHT22;156;48.738;9.228;2022-12-16T14:41:11;-2.00;1.00
336;DHT22;156;48.738;9.228;2022-12-16T14:44:16;-2.00;1.00
336;DHT22;156;48.738;9.228;2022-12-16T14:47:02;-2.00;1.00
336;DHT22;156;48.738;9.228;2022-12-16T14:49:51;-2.00;1.00
336;DHT22;156;48.738;9.228;2022-12-16T14:52:36;-2.00;1.00
336;DHT22;156;48.738;9.228;2022-12-16T14:55:26;-1.90;1.00
336;DHT22;156;48.738;9.228;2022-12-16T14:58:12;-1.90;1.00
336;DHT22;156;48.738;9.228;2022-12-16T15:01:01;-1.90;1.00
336;DHT22;156;48.738;9.228;2022-12-16T15:03:49;-2.00;1.00
336;DHT22;156;48.738;9.228;2022-12-16T15:06:36;-2.10;1.00
336;DHT22;156;48.738;9.228;2022-12-16T15:09:25;-2.10;1.00
336;DHT22;156;48.738;9.228;2022-12-16T15:12:12;-2.30;1.00
336;DHT22;156;48.738;9.228;2022-12-16T15:14:57;-2.30;1.00
336;DHT22;156;48.738;9.228;2022-12-16T15:17:46;-2.30;1.00
336;DHT22;156;48.738;9.228;2022-12-16T15:20:35;-2.40;1.00
336;DHT22;156;48.738;9.228;2022-12-16T15:23:22;-2.40;1.00
336;DHT22;156;48.738;9.228;2022-12-16T15:26:08;-2.50;1.00
336;DHT22;156;48.738;9.228;2022-12-16T15:28:53;-2.50;1.00
336;DHT22;156;48.738;9.228;2022-12-16T15:31:39;-2.50;1.00
336;DHT22;156;48.738;9.228;2022-12-16T15:34:27;-2.40;1.00
336;DHT22;156;48.738;9.228;2022-12-16T15:37:16;-2.50;1.00
336;DHT22;156;48.738;9.228;2022-12-16T15:40:01;-2.50;1.00
336;DHT22;156;48.738;9.228;2022-12-16T15:42:49;-2.50;1.00
336;DHT22;156;48.738;9.228;2022-12-16T15:45:34;-2.40;1.00
336;DHT22;156;48.738;9.228;2022-12-16T15:48:22;-2.40;1.00
336;DHT22;156;48.738;9.228;2022-12-16T15:51:20;-2.40;1.00
336;DHT22;156;48.738;9.228;2022-12-16T15:54:14;-2.40;1.00
336;DHT22;156;48.738;9.228;2022-12-16T15:56:58;-2.40;1.00
336;DHT22;156;48.738;9.228;2022-12-16T15:59:56;-2.40;1.00
336;DHT22;156;48.738;9.228;2022-12-16T16:02:46;-2.40;1.00
336;DHT22;156;48.738;9.228;2022-12-16T16:05:30;-2.50;1.00
336;DHT22;156;48.738;9.228;2022-12-16T16:08:15;-2.50;1.00
336;DHT22;156;48.738;9.228;2022-12-16T16:11:01;-2.50;1.00
336;DHT22;156;48.738;9.228;2022-12-16T16:13:53;-2.50;1.00
336;DHT22;156;48.738;9.228;2022-12-16T16:16:38;-2.60;1.00
336;DHT22;156;48.738;9.228;2022-12-16T16:19:24;-2.60;1.00
336;DHT22;156;48.738;9.228;2022-12-16T16:22:11;-2.50;1.00
336;DHT22;156;48.738;9.228;2022-12-16T16:24:55;-2.50;1.00
336;DHT22;156;48.738;9.228;2022-12-16T16:27:41;-2.50;1.00
336;DHT22;156;48.738;9.228;2022-12-16T16:30:25;-2.50;1.00
336;DHT22;156;48.738;9.228;2022-12-16T16:33:09;-2.50;1.00
336;DHT22;156;48.738;9.228;2022-12-16T16:35:54;-2.50;1.00
336;DHT22;156;48.738;9.228;2022-12-16T16:38:39;-2.60;1.00
336;DHT22;156;48.738;9.228;2022-12-16T16:41:23;-2.60;1.00
336;DHT22;156;48.738;9.228;2022-12-16T16:44:09;-2.60;1.00
336;DHT22;156;48.738;9.228;2022-12-16T16:46:53;-2.60;1.00
336;DHT22;156;48.738;9.228;2022-12-16T16:49:42;-2.60;1.00
336;DHT22;156;48.738;9.228;2022-12-16T16:52:28;-2.50;1.00
336;DHT22;156;48.738;9.228;2022-12-16T16:55:14;-2.60;1.00
336;DHT22;156;48.738;9.228;2022-12-16T16:57:59;-2.60;1.00
336;DHT22;156;48.738;9.228;2022-12-16T17:00:45;-2.60;1.00
336;DHT22;156;48.738;9.228;2022-12-16T17:03:29;-2.60;1.00
336;DHT22;156;48.738;9.228;2022-12-16T17:06:13;-2.60;1.00
336;DHT22;156;48.738;9.228;2022-12-16T17:08:58;-2.60;1.00
336;DHT22;156;48.738;9.228;2022-12-16T17:11:43;-2.60;1.00
336;DHT22;156;48.738;9.228;2022-12-16T17:14:27;-2.60;1.00
336;DHT22;156;48.738;9.228;2022-12-16T17:17:13;-2.60;1.00
336;DHT22;156;48.738;9.228;2022-12-16T17:19:57;-2.60;1.00
336;DHT22;156;48.738;9.228;2022-12-16T17:22:41;-2.60;1.00
336;DHT22;156;48.738;9.228;2022-12-16T17:25:26;-2.60;1.00
336;DHT22;156;48.738;9.228;2022-12-16T17:28:10;-2.60;1.00
336;DHT22;156;48.738;9.228;2022-12-16T17:30:55;-2.60;1.00
336;DHT22;156;48.738;9.228;2022-12-16T17:33:41;-2.60;1.00
336;DHT22;156;48.738;9.228;2022-12-16T17:36:26;-2.60;1.00
336;DHT22;156;48.738;9.228;2022-12-16T17:39:10;-2.50;1.00
336;DHT22;156;48.738;9.228;2022-12-16T17:41:55;-2.50;1.00
336;DHT22;156;48.738;9.228;2022-12-16T17:44:39;-2.40;1.00
336;DHT22;156;48.738;9.228;2022-12-16T17:47:23;-2.40;1.00
336;DHT22;156;48.738;9.228;2022-12-16T17:50:09;-2.40;1.00
336;DHT22;156;48.738;9.228;2022-12-16T17:52:54;-2.40;1.00
336;DHT22;156;48.738;9.228;2022-12-16T17:55:39;-2.40;1.00
336;DHT22;156;48.738;9.228;2022-12-16T17:58:21;-2.30;1.00
336;DHT22;156;48.738;9.228;2022-12-16T18:01:11;-2.30;1.00
336;DHT22;156;48.738;9.228;2022-12-16T18:03:55;-2.30;1.00
336;DHT22;156;48.738;9.228;2022-12-16T18:06:41;-2.30;1.00
336;DHT22;156;48.738;9.228;2022-12-16T18:09:26;-2.30;1.00
336;DHT22;156;48.738;9.228;2022-12-16T18:12:10;-2.30;1.00
336;DHT22;156;48.738;9.228;2022-12-16T18:14:54;-2.30;1.00
336;DHT22;156;48.738;9.228;2022-12-16T18:17:38;-2.30;1.00
336;DHT22;156;48.738;9.228;2022-12-16T18:20:22;-2.30;1.00
336;DHT22;156;48.738;9.228;2022-12-16T18:23:13;-2.30;1.00
336;DHT22;156;48.738;9.228;2022-12-16T18:25:58;-2.30;1.00
336;DHT22;156;48.738;9.228;2022-12-16T18:28:42;-2.30;1.00
336;DHT22;156;48.738;9.228;2022-12-16T18:31:26;-2.40;1.00
336;DHT22;156;48.738;9.228;2022-12-16T18:34:11;-2.40;1.00
336;DHT22;156;48.738;9.228;2022-12-16T18:36:55;-2.40;1.00
336;DHT22;156;48.738;9.228;2022-12-16T18:39:40;-2.40;1.00
336;DHT22;156;48.738;9.228;2022-12-16T18:42:25;-2.40;1.00
336;DHT22;156;48.738;9.228;2022-12-16T18:45:09;-2.40;1.00